Excellence — KTDP — position and weather

sailwx.info

Track history (hours):
 
Tides and Currents Weather Stations Pressure Air Temp Water Temp Dewpoint Dewpoint Depression Visibility Wind Speed Wind Dir Waves Ship Positions

Excellence

Owner: AJVS, INC, Seattle, WA. More information available from US FCC via Universal Licensing System and Coast Guard Vessel Documentation Center.

Last reported at 2016-Jun-29 12:22 UTC. Time now 2016-Jun-29 12:54 UTC.
Position N 42°51' W 125°02'.

Length 112 m; draft 6 m.

Type: Other ship. MMSI: 338162000.

Date/timePositionNaut miles runAvg speedWind from/ knotsBaromVisibWave heightAir tempDewpointWater temp
2016-Jun-29 12:22N 42°51' W 125°02'7 5.5
2016-Jun-29 11:11N 42°57' W 125°05'4 5.4
2016-Jun-29 10:32N 43°01' W 125°07'5 5.2
2016-Jun-29 09:29N 43°06' W 125°08'5 4.9
2016-Jun-29 08:32N 43°11' W 125°08'5 5.3
2016-Jun-29 07:33N 43°16' W 125°08'6 5.6
2016-Jun-29 06:33N 43°22' W 125°07'6 5.9
2016-Jun-29 05:32N 43°27' W 125°06'8 7.9
2016-Jun-29 04:33N 43°35' W 125°07'9 9.3
2016-Jun-29 03:34N 43°44' W 125°07'9 9.0
2016-Jun-29 02:33N 43°54' W 125°07'9 9.2
2016-Jun-29 01:32N 44°03' W 125°08'9 9.1
2016-Jun-29 00:33N 44°12' W 125°08'9 9.0
2016-Jun-28 23:33N 44°21' W 125°08'9 9.1
2016-Jun-28 22:33N 44°30' W 125°08'9 9.0
2016-Jun-28 21:33N 44°39' W 125°08'9 9.0
2016-Jun-28 20:33N 44°48' W 125°08'9 9.1
2016-Jun-28 19:33N 44°57' W 125°08'9 9.0
2016-Jun-28 18:33N 45°06' W 125°09'9 9.0
2016-Jun-28 17:33N 45°15' W 125°09'9 8.9
2016-Jun-28 16:33N 45°24' W 125°11'9 8.9
2016-Jun-28 15:33N 45°33' W 125°12'9 9.0
2016-Jun-28 14:33N 45°42' W 125°13'9 9.3
2016-Jun-28 13:33N 45°51' W 125°13'10 9.5
2016-Jun-28 12:33N 46°01' W 125°13'10 9.7
2016-Jun-28 11:33N 46°10' W 125°14'10 9.9
2016-Jun-28 10:33N 46°20' W 125°14'1010.2
2016-Jun-28 09:33N 46°30' W 125°15'1010.3
2016-Jun-28 08:33N 46°41' W 125°16'1010.3
2016-Jun-28 07:33N 46°51' W 125°16'1010.2
2016-Jun-28 06:33N 47°01' W 125°17'20 9.9
2016-Jun-28 04:33N 47°21' W 125°18'10 9.8
2016-Jun-28 03:33N 47°31' W 125°18'1010.0
2016-Jun-28 02:33N 47°41' W 125°19'1211.6
2016-Jun-28 01:33N 47°52' W 125°19'1211.6
2016-Jun-28 00:33N 48°04' W 125°19'1110.7
2016-Jun-27 23:32N 48°14' W 125°14'4 4.6
2016-Jun-27 22:33N 48°15' W 125°20'1111.3
2016-Jun-27 21:33N 48°14' W 125°37'7 7.3
2016-Jun-27 20:33N 48°12' W 125°48'7 7.5
2016-Jun-27 19:33N 48°05' W 125°47'1010.2
2016-Jun-27 18:33N 48°02' W 125°32'7 6.9
2016-Jun-27 17:33N 47°60' W 125°23'6 6.0
2016-Jun-27 16:33N 47°55' W 125°18'7 7.1
2016-Jun-27 15:33N 47°50' W 125°10'7 7.0
2016-Jun-27 14:33N 47°44' W 125°06'7 7.1
2016-Jun-27 13:33N 47°36' W 125°07'5 4.8
2016-Jun-27 12:33N 47°33' W 125°02'3 3.0
2016-Jun-27 11:33N 47°34' W 125°07'3 2.6
2016-Jun-27 10:33N 47°32' W 125°05'3 2.8
2016-Jun-27 09:33N 47°34' W 125°07'2 2.4
2016-Jun-27 08:33N 47°36' W 125°09'2 1.7
2016-Jun-27 07:34N 47°38' W 125°09'3 2.8
2016-Jun-27 06:33N 47°35' W 125°10'2 2.0
2016-Jun-27 05:33N 47°33' W 125°10'2 2.4
2016-Jun-27 04:33N 47°32' W 125°06'5 5.4
2016-Jun-27 03:33N 47°27' W 125°02'8 7.5
2016-Jun-27 02:33N 47°20' W 124°60'8 7.8
2016-Jun-27 01:33N 47°13' W 125°04'8 7.7
2016-Jun-27 00:33N 47°05' W 125°01'8 7.7
2016-Jun-26 23:33N 46°58' W 125°03'8 8.4
2016-Jun-26 22:33N 46°50' W 124°58'8 8.5
2016-Jun-26 21:33N 46°42' W 124°52'7 7.5
2016-Jun-26 20:33N 46°38' W 124°44'6 5.9
2016-Jun-26 19:33N 46°32' W 124°40'8 8.5
2016-Jun-26 18:33N 46°24' W 124°40'3 3.0
2016-Jun-26 17:33N 46°22' W 124°37'9 9.0
2016-Jun-26 16:33N 46°30' W 124°33'5 5.4
2016-Jun-26 15:33N 46°32' W 124°40'8 7.9
2016-Jun-26 14:33N 46°39' W 124°47'10 9.6
2016-Jun-26 13:33N 46°47' W 124°54'6 5.8
2016-Jun-26 12:33N 46°52' W 124°58'3 2.9
2016-Jun-26 11:33N 46°54' W 125°00'4 4.0
2016-Jun-26 10:33N 46°58' W 124°59'4 3.8
2016-Jun-26 09:33N 47°02' W 124°58'4 3.8
2016-Jun-26 08:33N 47°06' W 124°57'4 4.2
2016-Jun-26 07:33N 47°10' W 124°56'5 4.9
2016-Jun-26 06:33N 47°15' W 124°55'5 4.9
2016-Jun-26 05:33N 47°20' W 124°54'5 4.8
2016-Jun-26 04:33N 47°24' W 124°53'1 1.2
2016-Jun-26 03:25N 47°26' W 124°52'1 1.7
2016-Jun-26 02:33N 47°25' W 124°50'2 2.0
2016-Jun-26 01:31N 47°23' W 124°48'1 0.7
2016-Jun-26 00:30N 47°24' W 124°47'1 0.9
2016-Jun-25 23:32N 47°23' W 124°49'0 0.4
2016-Jun-25 22:33N 47°23' W 124°48'2 2.2
2016-Jun-25 21:33N 47°23' W 124°45'4 4.5
2016-Jun-25 20:33N 47°27' W 124°48'9 8.9
2016-Jun-25 19:33N 47°35' W 124°55'1210.3
2016-Jun-25 18:21N 47°47' W 124°53'24 7.9
2016-Jun-25 15:21N 48°04' W 125°18'8 9.6
2016-Jun-25 14:32N 48°11' W 125°14'1111.3
2016-Jun-25 13:31N 48°22' W 125°08'1010.2
2016-Jun-25 12:32N 48°30' W 124°59'1110.9
2016-Jun-25 11:33N 48°30' W 124°43'1211.6
2016-Jun-25 10:33N 48°26' W 124°27'1212.0
2016-Jun-25 09:33N 48°21' W 124°10'1212.2
2016-Jun-25 08:33N 48°17' W 123°53'1313.0
2016-Jun-25 07:33N 48°15' W 123°34'1111.4
2016-Jun-25 06:33N 48°14' W 123°17'1311.5
2016-Jun-25 05:23N 48°12' W 122°57'1010.8
2016-Jun-25 04:29N 48°09' W 122°43'9 9.7
2016-Jun-25 03:33N 48°01' W 122°37'9 9.5
2016-Jun-25 02:33N 47°54' W 122°28'1110.7
2016-Jun-25 01:33N 47°43' W 122°26'6 5.9
2016-Jun-25 00:33N 47°38' W 122°23'0 0.1
2016-Jun-24 23:33N 47°38' W 122°23'0 0.0
2016-Jun-24 22:33N 47°38' W 122°23'0 0.0
2016-Jun-24 21:33N 47°38' W 122°23'0 0.0
2016-Jun-24 20:33N 47°38' W 122°23'0 0.0
2016-Jun-24 19:31N 47°38' W 122°23'0 0.0
2016-Jun-24 18:31N 47°38' W 122°23'0 0.0
2016-Jun-24 17:31N 47°38' W 122°23'0 0.0
2016-Jun-24 16:31N 47°38' W 122°23'0 0.0
2016-Jun-24 15:32N 47°38' W 122°23'0 0.0
2016-Jun-24 14:32N 47°38' W 122°23'0 0.0
2016-Jun-24 13:31N 47°38' W 122°23'0 0.0
2016-Jun-24 12:32N 47°38' W 122°23'0 0.0
2016-Jun-24 11:31N 47°38' W 122°23'0 0.0
2016-Jun-24 10:32N 47°38' W 122°23'0 0.0
2016-Jun-24 09:32N 47°38' W 122°23'0 0.0
2016-Jun-24 08:31N 47°38' W 122°23'0 0.0
2016-Jun-24 07:32N 47°38' W 122°23'0 0.0
2016-Jun-24 04:31N 47°38' W 122°23'0 0.0
2016-Jun-24 03:31N 47°38' W 122°23'0 0.0
2016-Jun-24 02:31N 47°38' W 122°23'0 0.0
2016-Jun-24 01:31N 47°38' W 122°23'0 0.0
2016-Jun-24 00:31N 47°38' W 122°23'0 0.0
2016-Jun-23 23:32N 47°38' W 122°23'0 0.0
2016-Jun-23 22:31N 47°38' W 122°23'0 0.0
2016-Jun-23 21:31N 47°38' W 122°23'0 0.0
2016-Jun-23 20:32N 47°38' W 122°23'0 0.0
2016-Jun-23 19:31N 47°38' W 122°23'0 0.0
2016-Jun-23 18:31N 47°38' W 122°23'0 0.0
2016-Jun-23 17:32N 47°38' W 122°23'0 0.0
2016-Jun-23 16:33N 47°38' W 122°23'0 0.0
2016-Jun-23 15:33N 47°38' W 122°23'0 0.0
2016-Jun-23 14:33N 47°38' W 122°23'0 0.0
2016-Jun-23 13:33N 47°38' W 122°23'0 0.0
2016-Jun-23 12:33N 47°38' W 122°23'0 0.0
2016-Jun-23 11:33N 47°38' W 122°23'0 0.0
2016-Jun-23 10:33N 47°38' W 122°23'0 0.0
2016-Jun-23 09:33N 47°38' W 122°23'0 0.0
2016-Jun-23 08:33N 47°38' W 122°23'0 0.0
2016-Jun-23 07:33N 47°38' W 122°23'0 0.0
2016-Jun-23 05:33N 47°38' W 122°23'0 0.0
2016-Jun-23 04:33N 47°38' W 122°23'0 0.0
2016-Jun-23 03:33N 47°38' W 122°23'0 0.0
2016-Jun-23 02:33N 47°38' W 122°23'0 0.0
2016-Jun-23 01:33N 47°38' W 122°23'0 0.0
2016-Jun-23 00:33N 47°38' W 122°23'0 0.0
2016-Jun-22 23:34N 47°38' W 122°23'0 0.0
2016-Jun-22 22:33N 47°38' W 122°23'0 0.0
2016-Jun-22 21:33N 47°38' W 122°23'0 0.0
2016-Jun-22 20:33N 47°38' W 122°23'0 0.0
2016-Jun-22 19:33N 47°38' W 122°23'0 0.0
2016-Jun-22 18:31N 47°38' W 122°23'0 0.0
2016-Jun-22 17:33N 47°38' W 122°23'0 0.0
2016-Jun-22 16:33N 47°38' W 122°23'0 0.0
2016-Jun-22 15:32N 47°38' W 122°23'0 0.0
2016-Jun-22 14:32N 47°38' W 122°23'0 0.0
2016-Jun-22 13:32N 47°38' W 122°23'0 0.0
2016-Jun-22 12:32N 47°38' W 122°23'0 0.0
2016-Jun-22 11:32N 47°38' W 122°23'0 0.0
2016-Jun-22 10:31N 47°38' W 122°23'0 0.0
2016-Jun-22 09:33N 47°38' W 122°23'0 0.0
2016-Jun-22 08:33N 47°38' W 122°23'0 0.0
2016-Jun-22 07:32N 47°38' W 122°23'0 0.0
2016-Jun-22 06:32N 47°38' W 122°23'0 0.0
2016-Jun-22 05:33N 47°38' W 122°23'0 0.0
2016-Jun-22 04:31N 47°38' W 122°23'0 0.0
2016-Jun-22 03:32N 47°38' W 122°23'0 0.0
2016-Jun-22 02:31N 47°38' W 122°23'0 0.0
2016-Jun-22 01:32N 47°38' W 122°23'0 0.0
2016-Jun-22 00:33N 47°38' W 122°23'0 0.0
2016-Jun-21 23:32N 47°38' W 122°23'0 0.0
2016-Jun-21 22:32N 47°38' W 122°23'0 0.0
2016-Jun-21 21:32N 47°38' W 122°23'0 0.0
2016-Jun-21 20:33N 47°38' W 122°23'0 0.0
2016-Jun-21 19:32N 47°38' W 122°23'0 0.0
2016-Jun-21 18:32N 47°38' W 122°23'0 0.0
2016-Jun-21 17:32N 47°38' W 122°23'0 0.0
2016-Jun-21 16:32N 47°38' W 122°23'0 0.0
2016-Jun-21 15:32N 47°38' W 122°23'0 0.0
2016-Jun-21 14:33N 47°38' W 122°23'0 0.0
2016-Jun-21 13:33N 47°38' W 122°23'0 0.0
2016-Jun-21 12:32N 47°38' W 122°23'0 0.0
2016-Jun-21 11:32N 47°38' W 122°23'0 0.0
2016-Jun-21 10:32N 47°38' W 122°23'0 0.0
2016-Jun-21 09:32N 47°38' W 122°23'0 0.0
2016-Jun-21 08:31N 47°38' W 122°23'0 0.0
2016-Jun-21 07:32N 47°38' W 122°23'0 0.0
2016-Jun-21 06:32N 47°38' W 122°23'0 0.0
2016-Jun-21 04:32N 47°38' W 122°23'0 0.0
2016-Jun-21 03:32N 47°38' W 122°23'0 0.0
2016-Jun-21 02:31N 47°38' W 122°23'0 0.0
2016-Jun-21 01:32N 47°38' W 122°23'0 0.0
2016-Jun-21 00:31N 47°38' W 122°23'0 0.0
2016-Jun-20 23:32N 47°38' W 122°23'0 0.0
2016-Jun-20 22:32N 47°38' W 122°23'0 0.0
2016-Jun-20 21:31N 47°38' W 122°23'0 0.0
2016-Jun-20 20:32N 47°38' W 122°23'0 0.0
2016-Jun-20 19:32N 47°38' W 122°23'0 0.0
2016-Jun-20 18:32N 47°38' W 122°23'0 0.0
2016-Jun-20 17:31N 47°38' W 122°23'0 0.0
2016-Jun-20 16:32N 47°38' W 122°23'0 0.0
2016-Jun-20 15:32N 47°38' W 122°23'0 0.0
2016-Jun-20 14:31N 47°38' W 122°23'0 0.0
2016-Jun-20 13:32N 47°38' W 122°23'0 0.0
2016-Jun-20 12:33N 47°38' W 122°23'0 0.0
2016-Jun-20 11:32N 47°38' W 122°23'0 0.0
2016-Jun-20 10:32N 47°38' W 122°23'0 0.0
2016-Jun-20 09:32N 47°38' W 122°23'0 0.0
2016-Jun-20 08:32N 47°38' W 122°23'0 0.0
2016-Jun-20 07:32N 47°38' W 122°23'0 0.0
2016-Jun-20 06:32N 47°38' W 122°23'0 0.0
2016-Jun-20 05:32N 47°38' W 122°23'0 0.0
2016-Jun-20 04:32N 47°38' W 122°23'0 0.0
2016-Jun-20 03:31N 47°38' W 122°23'0 0.0
2016-Jun-20 02:32N 47°38' W 122°23'0 0.0
2016-Jun-20 01:32N 47°38' W 122°23'0 0.0
2016-Jun-20 00:32N 47°38' W 122°23'0 0.0
2016-Jun-19 23:32N 47°38' W 122°23'0 0.0
2016-Jun-19 22:32N 47°38' W 122°23'0 0.0
2016-Jun-19 21:32N 47°38' W 122°23'0 0.0
2016-Jun-19 20:32N 47°38' W 122°23'0 0.0
2016-Jun-19 19:31N 47°38' W 122°23'0 0.0
2016-Jun-19 18:32N 47°38' W 122°23'0 0.0
2016-Jun-19 17:31N 47°38' W 122°23'0 0.0
2016-Jun-19 16:31N 47°38' W 122°23'0 0.0
2016-Jun-19 15:32N 47°38' W 122°23'0 0.0
2016-Jun-19 14:32N 47°38' W 122°23'0 0.0
2016-Jun-19 13:32N 47°38' W 122°23'0 0.0
2016-Jun-19 12:33N 47°38' W 122°23'  
Track history (hours):
 
Tides and Currents Weather Stations Pressure Air Temp Water Temp Dewpoint Dewpoint Depression Visibility Wind Speed Wind Dir Waves Ship Positions

Excellence

Owner: AJVS, INC, Seattle, WA. More information available from US FCC via Universal Licensing System and Coast Guard Vessel Documentation Center.

Last reported at 2016-Jun-29 12:22 UTC. Time now 2016-Jun-29 12:54 UTC.
Position N 42°51' W 125°02'.

Length 112 m; draft 6 m.

Type: Other ship. MMSI: 338162000.

Date/timePositionNaut miles runAvg speedWind from/ knotsBaromVisibWave heightAir tempDewpointWater temp
2016-Jun-29 12:22N 42°51' W 125°02'7 5.5
2016-Jun-29 11:11N 42°57' W 125°05'4 5.4
2016-Jun-29 10:32N 43°01' W 125°07'5 5.2
2016-Jun-29 09:29N 43°06' W 125°08'5 4.9
2016-Jun-29 08:32N 43°11' W 125°08'5 5.3
2016-Jun-29 07:33N 43°16' W 125°08'6 5.6
2016-Jun-29 06:33N 43°22' W 125°07'6 5.9
2016-Jun-29 05:32N 43°27' W 125°06'8 7.9
2016-Jun-29 04:33N 43°35' W 125°07'9 9.3
2016-Jun-29 03:34N 43°44' W 125°07'9 9.0
2016-Jun-29 02:33N 43°54' W 125°07'9 9.2
2016-Jun-29 01:32N 44°03' W 125°08'9 9.1
2016-Jun-29 00:33N 44°12' W 125°08'9 9.0
2016-Jun-28 23:33N 44°21' W 125°08'9 9.1
2016-Jun-28 22:33N 44°30' W 125°08'9 9.0
2016-Jun-28 21:33N 44°39' W 125°08'9 9.0
2016-Jun-28 20:33N 44°48' W 125°08'9 9.1
2016-Jun-28 19:33N 44°57' W 125°08'9 9.0
2016-Jun-28 18:33N 45°06' W 125°09'9 9.0
2016-Jun-28 17:33N 45°15' W 125°09'9 8.9
2016-Jun-28 16:33N 45°24' W 125°11'9 8.9
2016-Jun-28 15:33N 45°33' W 125°12'9 9.0
2016-Jun-28 14:33N 45°42' W 125°13'9 9.3
2016-Jun-28 13:33N 45°51' W 125°13'10 9.5
2016-Jun-28 12:33N 46°01' W 125°13'10 9.7
2016-Jun-28 11:33N 46°10' W 125°14'10 9.9
2016-Jun-28 10:33N 46°20' W 125°14'1010.2
2016-Jun-28 09:33N 46°30' W 125°15'1010.3
2016-Jun-28 08:33N 46°41' W 125°16'1010.3
2016-Jun-28 07:33N 46°51' W 125°16'1010.2
2016-Jun-28 06:33N 47°01' W 125°17'20 9.9
2016-Jun-28 04:33N 47°21' W 125°18'10 9.8
2016-Jun-28 03:33N 47°31' W 125°18'1010.0
2016-Jun-28 02:33N 47°41' W 125°19'1211.6
2016-Jun-28 01:33N 47°52' W 125°19'1211.6
2016-Jun-28 00:33N 48°04' W 125°19'1110.7
2016-Jun-27 23:32N 48°14' W 125°14'4 4.6
2016-Jun-27 22:33N 48°15' W 125°20'1111.3
2016-Jun-27 21:33N 48°14' W 125°37'7 7.3
2016-Jun-27 20:33N 48°12' W 125°48'7 7.5
2016-Jun-27 19:33N 48°05' W 125°47'1010.2
2016-Jun-27 18:33N 48°02' W 125°32'7 6.9
2016-Jun-27 17:33N 47°60' W 125°23'6 6.0
2016-Jun-27 16:33N 47°55' W 125°18'7 7.1
2016-Jun-27 15:33N 47°50' W 125°10'7 7.0
2016-Jun-27 14:33N 47°44' W 125°06'7 7.1
2016-Jun-27 13:33N 47°36' W 125°07'5 4.8
2016-Jun-27 12:33N 47°33' W 125°02'3 3.0
2016-Jun-27 11:33N 47°34' W 125°07'3 2.6
2016-Jun-27 10:33N 47°32' W 125°05'3 2.8
2016-Jun-27 09:33N 47°34' W 125°07'2 2.4
2016-Jun-27 08:33N 47°36' W 125°09'2 1.7
2016-Jun-27 07:34N 47°38' W 125°09'3 2.8
2016-Jun-27 06:33N 47°35' W 125°10'2 2.0
2016-Jun-27 05:33N 47°33' W 125°10'2 2.4
2016-Jun-27 04:33N 47°32' W 125°06'5 5.4
2016-Jun-27 03:33N 47°27' W 125°02'8 7.5
2016-Jun-27 02:33N 47°20' W 124°60'8 7.8
2016-Jun-27 01:33N 47°13' W 125°04'8 7.7
2016-Jun-27 00:33N 47°05' W 125°01'8 7.7
2016-Jun-26 23:33N 46°58' W 125°03'8 8.4
2016-Jun-26 22:33N 46°50' W 124°58'8 8.5
2016-Jun-26 21:33N 46°42' W 124°52'7 7.5
2016-Jun-26 20:33N 46°38' W 124°44'6 5.9
2016-Jun-26 19:33N 46°32' W 124°40'8 8.5
2016-Jun-26 18:33N 46°24' W 124°40'3 3.0
2016-Jun-26 17:33N 46°22' W 124°37'9 9.0
2016-Jun-26 16:33N 46°30' W 124°33'5 5.4
2016-Jun-26 15:33N 46°32' W 124°40'8 7.9
2016-Jun-26 14:33N 46°39' W 124°47'10 9.6
2016-Jun-26 13:33N 46°47' W 124°54'6 5.8
2016-Jun-26 12:33N 46°52' W 124°58'3 2.9
2016-Jun-26 11:33N 46°54' W 125°00'4 4.0
2016-Jun-26 10:33N 46°58' W 124°59'4 3.8
2016-Jun-26 09:33N 47°02' W 124°58'4 3.8
2016-Jun-26 08:33N 47°06' W 124°57'4 4.2
2016-Jun-26 07:33N 47°10' W 124°56'5 4.9
2016-Jun-26 06:33N 47°15' W 124°55'5 4.9
2016-Jun-26 05:33N 47°20' W 124°54'5 4.8
2016-Jun-26 04:33N 47°24' W 124°53'1 1.2
2016-Jun-26 03:25N 47°26' W 124°52'1 1.7
2016-Jun-26 02:33N 47°25' W 124°50'2 2.0
2016-Jun-26 01:31N 47°23' W 124°48'1 0.7
2016-Jun-26 00:30N 47°24' W 124°47'1 0.9
2016-Jun-25 23:32N 47°23' W 124°49'0 0.4
2016-Jun-25 22:33N 47°23' W 124°48'2 2.2
2016-Jun-25 21:33N 47°23' W 124°45'4 4.5
2016-Jun-25 20:33N 47°27' W 124°48'9 8.9
2016-Jun-25 19:33N 47°35' W 124°55'1210.3
2016-Jun-25 18:21N 47°47' W 124°53'24 7.9
2016-Jun-25 15:21N 48°04' W 125°18'8 9.6
2016-Jun-25 14:32N 48°11' W 125°14'1111.3
2016-Jun-25 13:31N 48°22' W 125°08'1010.2
2016-Jun-25 12:32N 48°30' W 124°59'1110.9
2016-Jun-25 11:33N 48°30' W 124°43'1211.6
2016-Jun-25 10:33N 48°26' W 124°27'1212.0
2016-Jun-25 09:33N 48°21' W 124°10'1212.2
2016-Jun-25 08:33N 48°17' W 123°53'1313.0
2016-Jun-25 07:33N 48°15' W 123°34'1111.4
2016-Jun-25 06:33N 48°14' W 123°17'1311.5
2016-Jun-25 05:23N 48°12' W 122°57'1010.8
2016-Jun-25 04:29N 48°09' W 122°43'9 9.7
2016-Jun-25 03:33N 48°01' W 122°37'9 9.5
2016-Jun-25 02:33N 47°54' W 122°28'1110.7
2016-Jun-25 01:33N 47°43' W 122°26'6 5.9
2016-Jun-25 00:33N 47°38' W 122°23'0 0.1
2016-Jun-24 23:33N 47°38' W 122°23'0 0.0
2016-Jun-24 22:33N 47°38' W 122°23'0 0.0
2016-Jun-24 21:33N 47°38' W 122°23'0 0.0
2016-Jun-24 20:33N 47°38' W 122°23'0 0.0
2016-Jun-24 19:31N 47°38' W 122°23'0 0.0
2016-Jun-24 18:31N 47°38' W 122°23'0 0.0
2016-Jun-24 17:31N 47°38' W 122°23'0 0.0
2016-Jun-24 16:31N 47°38' W 122°23'0 0.0
2016-Jun-24 15:32N 47°38' W 122°23'0 0.0
2016-Jun-24 14:32N 47°38' W 122°23'0 0.0
2016-Jun-24 13:31N 47°38' W 122°23'0 0.0
2016-Jun-24 12:32N 47°38' W 122°23'0 0.0
2016-Jun-24 11:31N 47°38' W 122°23'0 0.0
2016-Jun-24 10:32N 47°38' W 122°23'0 0.0
2016-Jun-24 09:32N 47°38' W 122°23'0 0.0
2016-Jun-24 08:31N 47°38' W 122°23'0 0.0
2016-Jun-24 07:32N 47°38' W 122°23'0 0.0
2016-Jun-24 04:31N 47°38' W 122°23'0 0.0
2016-Jun-24 03:31N 47°38' W 122°23'0 0.0
2016-Jun-24 02:31N 47°38' W 122°23'0 0.0
2016-Jun-24 01:31N 47°38' W 122°23'0 0.0
2016-Jun-24 00:31N 47°38' W 122°23'0 0.0
2016-Jun-23 23:32N 47°38' W 122°23'0 0.0
2016-Jun-23 22:31N 47°38' W 122°23'0 0.0
2016-Jun-23 21:31N 47°38' W 122°23'0 0.0
2016-Jun-23 20:32N 47°38' W 122°23'0 0.0
2016-Jun-23 19:31N 47°38' W 122°23'0 0.0
2016-Jun-23 18:31N 47°38' W 122°23'0 0.0
2016-Jun-23 17:32N 47°38' W 122°23'0 0.0
2016-Jun-23 16:33N 47°38' W 122°23'0 0.0
2016-Jun-23 15:33N 47°38' W 122°23'0 0.0
2016-Jun-23 14:33N 47°38' W 122°23'0 0.0
2016-Jun-23 13:33N 47°38' W 122°23'0 0.0
2016-Jun-23 12:33N 47°38' W 122°23'0 0.0
2016-Jun-23 11:33N 47°38' W 122°23'0 0.0
2016-Jun-23 10:33N 47°38' W 122°23'0 0.0
2016-Jun-23 09:33N 47°38' W 122°23'0 0.0
2016-Jun-23 08:33N 47°38' W 122°23'0 0.0
2016-Jun-23 07:33N 47°38' W 122°23'0 0.0
2016-Jun-23 05:33N 47°38' W 122°23'0 0.0
2016-Jun-23 04:33N 47°38' W 122°23'0 0.0
2016-Jun-23 03:33N 47°38' W 122°23'0 0.0
2016-Jun-23 02:33N 47°38' W 122°23'0 0.0
2016-Jun-23 01:33N 47°38' W 122°23'0 0.0
2016-Jun-23 00:33N 47°38' W 122°23'0 0.0
2016-Jun-22 23:34N 47°38' W 122°23'0 0.0
2016-Jun-22 22:33N 47°38' W 122°23'0 0.0
2016-Jun-22 21:33N 47°38' W 122°23'0 0.0
2016-Jun-22 20:33N 47°38' W 122°23'0 0.0
2016-Jun-22 19:33N 47°38' W 122°23'0 0.0
2016-Jun-22 18:31N 47°38' W 122°23'0 0.0
2016-Jun-22 17:33N 47°38' W 122°23'0 0.0
2016-Jun-22 16:33N 47°38' W 122°23'0 0.0
2016-Jun-22 15:32N 47°38' W 122°23'0 0.0
2016-Jun-22 14:32N 47°38' W 122°23'0 0.0
2016-Jun-22 13:32N 47°38' W 122°23'0 0.0
2016-Jun-22 12:32N 47°38' W 122°23'0 0.0
2016-Jun-22 11:32N 47°38' W 122°23'0 0.0
2016-Jun-22 10:31N 47°38' W 122°23'0 0.0
2016-Jun-22 09:33N 47°38' W 122°23'0 0.0
2016-Jun-22 08:33N 47°38' W 122°23'0 0.0
2016-Jun-22 07:32N 47°38' W 122°23'0 0.0
2016-Jun-22 06:32N 47°38' W 122°23'0 0.0
2016-Jun-22 05:33N 47°38' W 122°23'0 0.0
2016-Jun-22 04:31N 47°38' W 122°23'0 0.0
2016-Jun-22 03:32N 47°38' W 122°23'0 0.0
2016-Jun-22 02:31N 47°38' W 122°23'0 0.0
2016-Jun-22 01:32N 47°38' W 122°23'0 0.0
2016-Jun-22 00:33N 47°38' W 122°23'0 0.0
2016-Jun-21 23:32N 47°38' W 122°23'0 0.0
2016-Jun-21 22:32N 47°38' W 122°23'0 0.0
2016-Jun-21 21:32N 47°38' W 122°23'0 0.0
2016-Jun-21 20:33N 47°38' W 122°23'0 0.0
2016-Jun-21 19:32N 47°38' W 122°23'0 0.0
2016-Jun-21 18:32N 47°38' W 122°23'0 0.0
2016-Jun-21 17:32N 47°38' W 122°23'0 0.0
2016-Jun-21 16:32N 47°38' W 122°23'0 0.0
2016-Jun-21 15:32N 47°38' W 122°23'0 0.0
2016-Jun-21 14:33N 47°38' W 122°23'0 0.0
2016-Jun-21 13:33N 47°38' W 122°23'0 0.0
2016-Jun-21 12:32N 47°38' W 122°23'0 0.0
2016-Jun-21 11:32N 47°38' W 122°23'0 0.0
2016-Jun-21 10:32N 47°38' W 122°23'0 0.0
2016-Jun-21 09:32N 47°38' W 122°23'0 0.0
2016-Jun-21 08:31N 47°38' W 122°23'0 0.0
2016-Jun-21 07:32N 47°38' W 122°23'0 0.0
2016-Jun-21 06:32N 47°38' W 122°23'0 0.0
2016-Jun-21 04:32N 47°38' W 122°23'0 0.0
2016-Jun-21 03:32N 47°38' W 122°23'0 0.0
2016-Jun-21 02:31N 47°38' W 122°23'0 0.0
2016-Jun-21 01:32N 47°38' W 122°23'0 0.0
2016-Jun-21 00:31N 47°38' W 122°23'0 0.0
2016-Jun-20 23:32N 47°38' W 122°23'0 0.0
2016-Jun-20 22:32N 47°38' W 122°23'0 0.0
2016-Jun-20 21:31N 47°38' W 122°23'0 0.0
2016-Jun-20 20:32N 47°38' W 122°23'0 0.0
2016-Jun-20 19:32N 47°38' W 122°23'0 0.0
2016-Jun-20 18:32N 47°38' W 122°23'0 0.0
2016-Jun-20 17:31N 47°38' W 122°23'0 0.0
2016-Jun-20 16:32N 47°38' W 122°23'0 0.0
2016-Jun-20 15:32N 47°38' W 122°23'0 0.0
2016-Jun-20 14:31N 47°38' W 122°23'0 0.0
2016-Jun-20 13:32N 47°38' W 122°23'0 0.0
2016-Jun-20 12:33N 47°38' W 122°23'0 0.0
2016-Jun-20 11:32N 47°38' W 122°23'0 0.0
2016-Jun-20 10:32N 47°38' W 122°23'0 0.0
2016-Jun-20 09:32N 47°38' W 122°23'0 0.0
2016-Jun-20 08:32N 47°38' W 122°23'0 0.0
2016-Jun-20 07:32N 47°38' W 122°23'0 0.0
2016-Jun-20 06:32N 47°38' W 122°23'0 0.0
2016-Jun-20 05:32N 47°38' W 122°23'0 0.0
2016-Jun-20 04:32N 47°38' W 122°23'0 0.0
2016-Jun-20 03:31N 47°38' W 122°23'0 0.0
2016-Jun-20 02:32N 47°38' W 122°23'0 0.0
2016-Jun-20 01:32N 47°38' W 122°23'0 0.0
2016-Jun-20 00:32N 47°38' W 122°23'0 0.0
2016-Jun-19 23:32N 47°38' W 122°23'0 0.0
2016-Jun-19 22:32N 47°38' W 122°23'0 0.0
2016-Jun-19 21:32N 47°38' W 122°23'0 0.0
2016-Jun-19 20:32N 47°38' W 122°23'0 0.0
2016-Jun-19 19:31N 47°38' W 122°23'0 0.0
2016-Jun-19 18:32N 47°38' W 122°23'0 0.0
2016-Jun-19 17:31N 47°38' W 122°23'0 0.0
2016-Jun-19 16:31N 47°38' W 122°23'0 0.0
2016-Jun-19 15:32N 47°38' W 122°23'0 0.0
2016-Jun-19 14:32N 47°38' W 122°23'0 0.0
2016-Jun-19 13:32N 47°38' W 122°23'0 0.0
2016-Jun-19 12:33N 47°38' W 122°23'  

Dump ship's entire track history